Dalian, China
Current Conditions -  °F | °C
As of 3:00 AM on Saturday 01 Nov 2014 (Local Time) from ZYTL Reporting Station
Smoke Smoke  
Wind Chill: 54°   Ceiling: Unl
Heat Index: 54°   Visibility: 1mi
Dew Point: 48°   Wind: 7mph
Humidity: 82%   Direction: 310°NW
Pressure: 30"   Gusts: NA
Location:  38.92°N, 121.65°E
Report Text: ZYTL 311900Z 31003MPS 1600 BR FU SCT026 12/09 Q1016 NOSIG
Loading
Personal Weather Stations






























Interactive Weather Map
Tropical Storm Tracking
New forecast layout! Learn more

10-Day Weather Forecast

Advertisements
Track Severe Weather on mobile